createdAt,value
2017-08-03T00:01:46.911Z,18.00
2017-08-03T00:04:14.552Z,19.67
2017-08-03T00:06:42.258Z,19.07
2017-08-03T00:09:10.111Z,16.20
2017-08-03T00:11:37.758Z,15.40
2017-08-03T00:14:05.629Z,17.40
2017-08-03T00:16:33.316Z,20.47
2017-08-03T00:19:01.081Z,20.10
2017-08-03T00:21:28.704Z,19.20
2017-08-03T00:23:56.375Z,19.00
2017-08-03T00:26:24.057Z,18.07
2017-08-03T00:28:51.925Z,16.60
2017-08-03T00:31:19.598Z,19.90
2017-08-03T00:33:47.492Z,17.40
2017-08-03T00:36:15.125Z,15.30
2017-08-03T00:38:42.793Z,16.67
2017-08-03T00:41:10.420Z,16.73
2017-08-03T00:43:38.058Z,17.90
2017-08-03T00:46:05.817Z,17.87
2017-08-03T00:48:33.445Z,18.43
2017-08-03T00:51:01.072Z,19.33
2017-08-03T00:53:28.930Z,17.73
2017-08-03T00:55:56.595Z,18.60
2017-08-03T00:58:24.977Z,17.73
2017-08-03T01:00:52.653Z,17.47
2017-08-03T01:03:20.295Z,15.77
2017-08-03T01:05:48.489Z,16.73
2017-08-03T01:08:16.158Z,16.30
2017-08-03T01:10:43.785Z,15.00
2017-08-03T01:13:11.410Z,15.27
2017-08-03T01:15:39.083Z,16.67
2017-08-03T01:18:06.722Z,18.30
2017-08-03T01:20:34.344Z,15.63
2017-08-03T01:23:02.032Z,15.50
2017-08-03T01:25:29.653Z,15.53
2017-08-03T01:27:57.281Z,17.37
2017-08-03T01:30:24.965Z,16.90
2017-08-03T01:32:52.600Z,17.80
2017-08-03T01:35:20.245Z,18.17
2017-08-03T01:37:47.975Z,16.10
2017-08-03T01:40:15.620Z,14.77
2017-08-03T01:42:43.271Z,18.17
2017-08-03T01:45:10.972Z,16.53
2017-08-03T01:47:38.632Z,18.70
2017-08-03T01:50:06.367Z,17.90
2017-08-03T01:52:34.401Z,17.30
2017-08-03T01:55:02.031Z,17.23
2017-08-03T01:57:29.721Z,16.43
2017-08-03T01:59:57.628Z,15.70
2017-08-03T02:02:25.337Z,18.57
2017-08-03T02:04:53.160Z,16.13
2017-08-03T02:07:21.624Z,17.73
2017-08-03T02:09:49.292Z,17.00
2017-08-03T02:12:16.949Z,15.03
2017-08-03T02:14:44.644Z,15.90
2017-08-03T02:17:12.269Z,15.20
2017-08-03T02:19:39.896Z,15.77
2017-08-03T02:22:07.859Z,16.10
2017-08-03T02:24:36.258Z,15.20
2017-08-03T02:27:03.890Z,17.30
2017-08-03T02:29:31.567Z,14.90
2017-08-03T02:31:59.204Z,14.97
2017-08-03T02:34:26.840Z,15.70
2017-08-03T02:36:54.525Z,15.50
2017-08-03T02:39:22.175Z,14.47
2017-08-03T02:41:49.805Z,14.63
2017-08-03T02:44:17.742Z,14.10
2017-08-03T02:46:46.139Z,13.63
2017-08-03T02:49:13.761Z,13.57
2017-08-03T02:51:41.442Z,14.10
2017-08-03T02:54:09.075Z,14.93
2017-08-03T02:56:36.709Z,13.17
2017-08-03T02:59:04.388Z,13.80
2017-08-03T03:01:32.029Z,13.67
2017-08-03T03:03:59.674Z,14.53
2017-08-03T03:06:27.368Z,14.40
2017-08-03T03:08:54.985Z,14.90
2017-08-03T03:11:22.635Z,13.40
2017-08-03T03:13:50.300Z,14.90
2017-08-03T03:16:17.934Z,15.70
2017-08-03T03:18:45.562Z,14.17
2017-08-03T03:21:13.249Z,14.00
2017-08-03T03:23:40.887Z,13.90
2017-08-03T03:26:08.800Z,15.33
2017-08-03T03:28:36.493Z,14.03
2017-08-03T03:31:04.145Z,15.67
2017-08-03T03:33:31.764Z,13.13
2017-08-03T03:35:59.644Z,13.60
2017-08-03T03:38:27.294Z,12.93
2017-08-03T03:40:55.074Z,13.40
2017-08-03T03:43:22.766Z,13.20
2017-08-03T03:45:50.401Z,12.10
2017-08-03T03:48:18.029Z,12.13
2017-08-03T03:50:45.702Z,13.83
2017-08-03T03:53:13.403Z,11.23
2017-08-03T03:55:41.050Z,13.60
2017-08-03T03:58:08.725Z,12.10
2017-08-03T04:00:36.381Z,12.53
2017-08-03T04:03:04.005Z,12.83
2017-08-03T04:05:31.681Z,11.73
2017-08-03T04:07:59.376Z,13.20
2017-08-03T04:10:27.005Z,11.80
2017-08-03T04:12:54.674Z,14.33
2017-08-03T04:15:22.333Z,13.47
2017-08-03T04:17:49.954Z,12.70
2017-08-03T04:20:17.630Z,12.53
2017-08-03T04:22:45.345Z,12.97
2017-08-03T04:25:12.967Z,12.10
2017-08-03T04:27:40.659Z,12.00
2017-08-03T04:30:08.305Z,12.90
2017-08-03T04:32:36.013Z,13.57
2017-08-03T04:35:03.778Z,15.10
2017-08-03T04:37:31.404Z,12.83
2017-08-03T04:39:59.028Z,13.47
2017-08-03T04:42:27.473Z,12.90
2017-08-03T04:44:55.099Z,12.53
2017-08-03T04:47:22.741Z,11.33
2017-08-03T04:49:50.407Z,11.17
2017-08-03T04:52:18.804Z,10.80
2017-08-03T04:54:46.431Z,11.93
2017-08-03T04:57:14.116Z,12.20
2017-08-03T04:59:41.744Z,9.80
2017-08-03T05:02:09.386Z,10.43
2017-08-03T05:04:37.084Z,10.10
2017-08-03T05:07:05.035Z,9.80
2017-08-03T05:09:32.668Z,9.73
2017-08-03T05:12:00.369Z,10.40
2017-08-03T05:14:28.012Z,10.90
2017-08-03T05:16:55.673Z,9.70
2017-08-03T05:19:23.353Z,10.93
2017-08-03T05:21:51.056Z,9.83
2017-08-03T05:24:19.713Z,9.50
2017-08-03T05:26:47.400Z,10.10
2017-08-03T05:29:15.032Z,10.27
2017-08-03T05:31:42.687Z,9.60
2017-08-03T05:34:10.385Z,9.73
2017-08-03T05:36:38.017Z,11.13
2017-08-03T05:39:06.052Z,9.30
2017-08-03T05:41:33.751Z,10.57
2017-08-03T05:44:01.378Z,9.63
2017-08-03T05:46:29.021Z,8.17
2017-08-03T05:48:57.468Z,10.30
2017-08-03T05:51:25.093Z,9.17
2017-08-03T05:53:52.945Z,8.70
2017-08-03T05:56:20.637Z,8.57
2017-08-03T05:58:48.283Z,7.40
2017-08-03T06:01:15.945Z,8.13
2017-08-03T06:03:43.642Z,9.40
2017-08-03T06:06:11.264Z,8.67
2017-08-03T06:08:38.890Z,8.43
2017-08-03T06:11:06.664Z,8.43
2017-08-03T06:13:35.067Z,9.23
2017-08-03T06:16:02.783Z,8.23
2017-08-03T06:18:30.487Z,8.60
2017-08-03T06:20:58.384Z,7.43
2017-08-03T06:23:26.021Z,8.83
2017-08-03T06:25:53.690Z,8.80
2017-08-03T06:28:21.317Z,7.57
2017-08-03T06:30:48.944Z,8.07
2017-08-03T06:33:16.612Z,7.97
2017-08-03T06:35:44.229Z,7.90
2017-08-03T06:38:11.852Z,8.33
2017-08-03T06:40:39.882Z,8.13
2017-08-03T06:43:07.505Z,8.10
2017-08-03T06:45:35.336Z,8.33
2017-08-03T06:48:03.170Z,7.03
2017-08-03T06:50:30.799Z,7.60
2017-08-03T06:52:58.421Z,7.30
2017-08-03T06:55:26.088Z,7.77
2017-08-03T06:57:53.956Z,6.53
2017-08-03T07:00:21.721Z,6.77
2017-08-03T07:02:49.496Z,6.63
2017-08-03T07:05:17.258Z,7.60
2017-08-03T07:07:44.890Z,7.80
2017-08-03T07:10:12.757Z,6.73
2017-08-03T07:12:40.404Z,7.37
2017-08-03T07:15:08.045Z,6.90
2017-08-03T07:17:35.720Z,6.50
2017-08-03T07:20:04.161Z,6.90
2017-08-03T07:22:31.814Z,6.47
2017-08-03T07:24:59.493Z,6.60
2017-08-03T07:27:27.310Z,6.50
2017-08-03T07:29:54.980Z,7.83
2017-08-03T07:32:22.746Z,7.73
2017-08-03T07:34:50.374Z,6.50
2017-08-03T07:37:18.779Z,7.30
2017-08-03T07:39:46.493Z,7.07
2017-08-03T07:42:14.261Z,6.20
2017-08-03T07:44:41.885Z,6.77
2017-08-03T07:47:10.401Z,6.23
2017-08-03T07:49:38.033Z,7.37
2017-08-03T07:52:05.666Z,7.90
2017-08-03T07:54:34.105Z,6.97
2017-08-03T07:57:01.781Z,6.60
2017-08-03T07:59:29.400Z,7.13
2017-08-03T08:01:57.135Z,7.00
2017-08-03T08:04:24.760Z,7.73
2017-08-03T08:06:52.406Z,6.40
2017-08-03T08:09:20.098Z,6.67
2017-08-03T08:11:47.724Z,6.87
2017-08-03T08:14:15.361Z,6.87
2017-08-03T08:16:43.289Z,7.37
2017-08-03T08:19:10.904Z,7.10
2017-08-03T08:21:38.549Z,6.77
2017-08-03T08:24:06.994Z,7.10
2017-08-03T08:26:34.743Z,6.47
2017-08-03T08:29:02.415Z,6.70
2017-08-03T08:31:30.249Z,6.77
2017-08-03T08:33:58.045Z,6.00
2017-08-03T08:36:25.665Z,6.50
2017-08-03T08:38:53.328Z,8.20
2017-08-03T08:41:20.953Z,6.87
2017-08-03T08:43:48.591Z,6.87
2017-08-03T08:46:16.525Z,7.20
2017-08-03T08:48:44.343Z,5.27
2017-08-03T08:51:11.970Z,6.13
2017-08-03T08:53:39.652Z,5.17
2017-08-03T08:56:07.352Z,6.23
2017-08-03T08:58:34.982Z,7.57
2017-08-03T09:01:02.656Z,6.27
2017-08-03T09:03:30.280Z,5.90
2017-08-03T09:05:57.899Z,6.40
2017-08-03T09:08:25.564Z,6.43
2017-08-03T09:10:53.214Z,6.50
2017-08-03T09:13:20.973Z,5.67
2017-08-03T09:15:48.651Z,6.40
2017-08-03T09:18:16.480Z,6.73
2017-08-03T09:20:44.108Z,6.77
2017-08-03T09:23:12.055Z,6.43
2017-08-03T09:25:40.449Z,7.60
2017-08-03T09:28:08.841Z,6.90
2017-08-03T09:30:36.528Z,6.43
2017-08-03T09:33:04.256Z,6.53
2017-08-03T09:35:31.883Z,7.00
2017-08-03T09:37:59.564Z,7.13
2017-08-03T09:40:27.197Z,7.00
2017-08-03T09:42:54.838Z,6.90
2017-08-03T09:45:22.521Z,7.93
2017-08-03T09:47:50.152Z,7.13
2017-08-03T09:50:17.765Z,7.80
2017-08-03T09:52:45.521Z,7.40
2017-08-03T09:55:13.166Z,6.93
2017-08-03T09:57:40.800Z,7.67
2017-08-03T10:00:08.509Z,7.50
2017-08-03T10:02:36.369Z,8.37
2017-08-03T10:05:04.132Z,6.83
2017-08-03T10:07:31.813Z,7.27
2017-08-03T10:09:59.445Z,7.53
2017-08-03T10:12:27.096Z,7.00
2017-08-03T10:14:55.061Z,6.67
2017-08-03T10:17:22.688Z,6.53
2017-08-03T10:19:50.318Z,6.67
2017-08-03T10:22:17.998Z,6.93
2017-08-03T10:24:45.631Z,6.80
2017-08-03T10:27:13.256Z,7.33
2017-08-03T10:29:40.941Z,6.37
2017-08-03T10:32:09.004Z,7.50
2017-08-03T10:34:37.189Z,7.63
2017-08-03T10:37:04.884Z,7.30
2017-08-03T10:39:32.509Z,7.67
2017-08-03T10:42:00.155Z,7.67
2017-08-03T10:44:28.525Z,6.60
2017-08-03T10:46:56.148Z,7.10
2017-08-03T10:49:23.785Z,7.93
2017-08-03T10:51:51.465Z,8.13
2017-08-03T10:54:19.116Z,7.30
2017-08-03T10:56:46.732Z,7.17
2017-08-03T10:59:14.422Z,7.70
2017-08-03T11:01:42.053Z,7.80
2017-08-03T11:04:09.678Z,7.33
2017-08-03T11:06:37.334Z,7.30
2017-08-03T11:09:05.017Z,8.20
2017-08-03T11:11:32.649Z,7.97
2017-08-03T11:14:00.319Z,6.93
2017-08-03T11:16:27.940Z,7.97
2017-08-03T11:18:55.562Z,7.90
2017-08-03T11:21:23.240Z,7.07
2017-08-03T11:23:51.062Z,7.67
2017-08-03T11:26:18.769Z,7.13
2017-08-03T11:28:47.376Z,7.70
2017-08-03T11:31:15.002Z,6.47
2017-08-03T11:33:42.631Z,7.87
2017-08-03T11:36:10.514Z,7.83
2017-08-03T11:38:38.139Z,6.63
2017-08-03T11:41:06.374Z,7.83
2017-08-03T11:43:34.043Z,7.10
2017-08-03T11:46:01.666Z,8.20
2017-08-03T11:48:29.283Z,8.90
2017-08-03T11:50:56.948Z,7.97
2017-08-03T11:53:24.591Z,7.17
2017-08-03T11:55:52.244Z,6.93
2017-08-03T11:58:20.033Z,6.80
2017-08-03T12:00:47.729Z,7.50
2017-08-03T12:03:15.349Z,6.30
2017-08-03T12:05:43.033Z,6.30
2017-08-03T12:08:10.649Z,7.03
2017-08-03T12:10:38.276Z,6.77
2017-08-03T12:13:06.704Z,6.47
2017-08-03T12:15:34.965Z,6.83
2017-08-03T12:18:02.728Z,6.60
2017-08-03T12:20:30.414Z,6.27
2017-08-03T12:22:58.042Z,5.70
2017-08-03T12:25:25.670Z,6.60
2017-08-03T12:27:53.376Z,6.57
2017-08-03T12:30:21.017Z,7.33
2017-08-03T12:32:49.415Z,6.30
2017-08-03T12:35:17.133Z,6.27
2017-08-03T12:37:44.754Z,5.80
2017-08-03T12:40:12.373Z,6.10
2017-08-03T12:42:41.200Z,6.10
2017-08-03T12:45:10.460Z,6.20
2017-08-03T12:47:38.635Z,6.73
2017-08-03T12:50:07.805Z,6.40
2017-08-03T12:52:36.681Z,5.93
2017-08-03T12:55:04.886Z,6.80
2017-08-03T12:57:32.872Z,6.77
2017-08-03T13:00:03.493Z,5.97
2017-08-03T13:02:31.112Z,6.10
2017-08-03T13:04:58.782Z,6.70
2017-08-03T13:07:26.408Z,7.10
2017-08-03T13:09:54.036Z,6.63
2017-08-03T13:12:21.743Z,6.37
2017-08-03T13:14:49.365Z,6.80
2017-08-03T13:17:17.182Z,6.90
2017-08-03T13:19:44.876Z,6.37
2017-08-03T13:22:12.498Z,6.13
2017-08-03T13:24:40.413Z,6.00
2017-08-03T13:27:08.400Z,6.83
2017-08-03T13:29:36.038Z,7.13
2017-08-03T13:32:04.408Z,6.70
2017-08-03T13:34:32.479Z,5.67
2017-08-03T13:37:00.099Z,7.17
2017-08-03T13:39:27.764Z,6.30
2017-08-03T13:41:55.456Z,5.93
2017-08-03T13:44:23.152Z,6.83
2017-08-03T13:46:50.781Z,6.17
2017-08-03T13:49:18.488Z,7.27
2017-08-03T13:51:47.127Z,6.07
2017-08-03T13:54:15.753Z,5.73
2017-08-03T13:56:44.881Z,7.20
2017-08-03T13:59:12.904Z,6.47
2017-08-03T14:01:40.534Z,6.30
2017-08-03T14:04:08.231Z,6.17
2017-08-03T14:06:35.852Z,6.30
2017-08-03T14:09:04.413Z,6.83
2017-08-03T14:11:32.424Z,6.50
2017-08-03T14:14:00.085Z,6.50
2017-08-03T14:16:27.701Z,6.03
2017-08-03T14:18:55.465Z,6.60
2017-08-03T14:21:23.106Z,6.53
2017-08-03T14:23:50.869Z,5.87
2017-08-03T14:26:18.566Z,5.73
2017-08-03T14:28:46.971Z,6.90
2017-08-03T14:31:14.593Z,6.50
2017-08-03T14:33:42.757Z,7.17
2017-08-03T14:36:10.524Z,7.13
2017-08-03T14:38:38.290Z,5.83
2017-08-03T14:41:05.979Z,6.70
2017-08-03T14:43:33.629Z,6.80
2017-08-03T14:46:01.277Z,6.10
2017-08-03T14:48:29.049Z,6.80
2017-08-03T14:50:56.677Z,6.73
2017-08-03T14:53:24.591Z,7.03
2017-08-03T14:55:52.255Z,6.17
2017-08-03T14:58:19.877Z,6.90
2017-08-03T15:00:47.503Z,7.60
2017-08-03T15:03:15.398Z,6.57
2017-08-03T15:05:43.025Z,6.60
2017-08-03T15:08:10.956Z,7.20
2017-08-03T15:10:38.637Z,6.43
2017-08-03T15:13:06.248Z,7.10
2017-08-03T15:15:33.864Z,7.70
2017-08-03T15:18:01.569Z,7.37
2017-08-03T15:20:29.469Z,8.13
2017-08-03T15:22:57.164Z,6.50
2017-08-03T15:25:25.136Z,6.47
2017-08-03T15:27:52.767Z,6.50
2017-08-03T15:30:20.409Z,7.33
2017-08-03T15:32:48.091Z,6.70
2017-08-03T15:35:15.717Z,6.83
2017-08-03T15:37:43.520Z,6.70
2017-08-03T15:40:11.204Z,7.73
2017-08-03T15:42:39.052Z,6.53
2017-08-03T15:45:06.677Z,7.60
2017-08-03T15:47:34.356Z,6.97
2017-08-03T15:50:02.716Z,8.23
2017-08-03T15:52:30.334Z,8.37
2017-08-03T15:54:58.088Z,8.80
2017-08-03T15:57:25.718Z,6.33
2017-08-03T15:59:53.342Z,7.03
2017-08-03T16:02:21.007Z,7.83
2017-08-03T16:04:48.849Z,7.10
2017-08-03T16:07:16.488Z,7.70
2017-08-03T16:09:44.153Z,7.50
2017-08-03T16:12:11.784Z,7.00
2017-08-03T16:14:39.418Z,7.20
2017-08-03T16:17:07.068Z,8.83
2017-08-03T16:19:34.688Z,6.90
2017-08-03T16:22:02.356Z,7.10
2017-08-03T16:24:30.116Z,6.43
2017-08-03T16:26:57.740Z,6.97
2017-08-03T16:29:25.380Z,7.13
2017-08-03T16:31:53.075Z,7.50
2017-08-03T16:34:20.708Z,7.83
2017-08-03T16:36:48.346Z,7.70
2017-08-03T16:39:16.073Z,6.70
2017-08-03T16:41:44.456Z,7.57
2017-08-03T16:44:12.856Z,7.13
2017-08-03T16:46:40.549Z,7.63
2017-08-03T16:49:08.173Z,7.63
2017-08-03T16:51:35.796Z,6.53
2017-08-03T16:54:03.634Z,7.50
2017-08-03T16:56:31.400Z,8.60
2017-08-03T16:58:59.097Z,7.30
2017-08-03T17:01:26.752Z,7.30
2017-08-03T17:03:54.367Z,7.70
2017-08-03T17:06:22.153Z,8.00
2017-08-03T17:08:49.833Z,7.43
2017-08-03T17:11:17.461Z,8.20
2017-08-03T17:13:45.082Z,6.93
2017-08-03T17:16:13.624Z,6.83
2017-08-03T17:18:41.251Z,6.37
2017-08-03T17:21:09.290Z,6.73
2017-08-03T17:23:36.976Z,7.83
2017-08-03T17:26:05.198Z,6.67
2017-08-03T17:28:32.813Z,7.77
2017-08-03T17:31:00.479Z,6.80
2017-08-03T17:33:28.212Z,6.97
2017-08-03T17:35:55.824Z,6.83
2017-08-03T17:38:23.525Z,8.60
2017-08-03T17:40:51.163Z,7.53
2017-08-03T17:43:18.786Z,7.53
2017-08-03T17:45:46.601Z,8.20
2017-08-03T17:48:14.213Z,9.07
2017-08-03T17:50:41.846Z,8.33
2017-08-03T17:53:09.524Z,8.80
2017-08-03T17:55:37.295Z,8.87
2017-08-03T17:58:05.155Z,8.90
2017-08-03T18:00:33.612Z,9.10
2017-08-03T18:03:01.373Z,9.30
2017-08-03T18:05:29.410Z,8.47
2017-08-03T18:07:58.145Z,8.80
2017-08-03T18:10:26.209Z,8.40
2017-08-03T18:12:53.972Z,9.60
2017-08-03T18:15:21.694Z,10.10
2017-08-03T18:17:50.429Z,9.40
2017-08-03T18:20:18.500Z,10.63
2017-08-03T18:22:46.269Z,9.00
2017-08-03T18:25:13.924Z,9.70
2017-08-03T18:27:41.792Z,10.30
2017-08-03T18:30:09.505Z,10.40
2017-08-03T18:32:37.905Z,10.27
2017-08-03T18:35:06.323Z,11.43
2017-08-03T18:37:35.616Z,8.07
2017-08-03T18:40:03.672Z,9.43
2017-08-03T18:42:31.764Z,9.30
2017-08-03T18:45:00.253Z,10.10
2017-08-03T18:47:28.156Z,8.87
2017-08-03T18:49:56.989Z,10.60
2017-08-03T18:52:25.099Z,11.10
2017-08-03T18:54:52.798Z,9.20
2017-08-03T18:57:21.039Z,10.80
2017-08-03T18:59:49.604Z,9.67
2017-08-03T19:02:17.611Z,10.60
2017-08-03T19:04:45.321Z,12.73
2017-08-03T19:07:13.965Z,11.00
2017-08-03T19:09:42.716Z,11.80
2017-08-03T19:12:10.483Z,14.77
2017-08-03T19:14:38.184Z,12.50
2017-08-03T19:17:06.933Z,12.63
2017-08-03T19:19:34.699Z,13.40
2017-08-03T19:22:03.012Z,14.23
2017-08-03T19:24:30.699Z,10.80
2017-08-03T19:26:58.610Z,11.43
2017-08-03T19:29:26.347Z,12.50
2017-08-03T19:31:54.777Z,12.50
2017-08-03T19:34:22.767Z,11.77
2017-08-03T19:36:50.507Z,12.30
2017-08-03T19:39:18.972Z,13.33
2017-08-03T19:41:46.765Z,14.03
2017-08-03T19:44:16.038Z,13.67
2017-08-03T19:46:44.274Z,12.70
2017-08-03T19:49:12.449Z,13.97
2017-08-03T19:51:40.789Z,13.63
2017-08-03T19:54:08.769Z,14.70
2017-08-03T19:56:36.766Z,12.40
2017-08-03T19:59:04.997Z,11.70
2017-08-03T20:01:33.514Z,10.47
2017-08-03T20:04:01.332Z,12.87
2017-08-03T20:06:29.525Z,12.80
2017-08-03T20:09:09.270Z,12.43
2017-08-03T20:11:38.064Z,12.60
2017-08-03T20:14:06.759Z,11.20
2017-08-03T20:16:34.524Z,13.47
2017-08-03T20:19:03.498Z,11.53
2017-08-03T20:21:31.301Z,14.37
2017-08-03T20:23:59.801Z,12.20
2017-08-03T20:26:28.378Z,14.53
2017-08-03T20:28:57.113Z,13.80
2017-08-03T20:31:26.001Z,12.03
2017-08-03T20:33:54.704Z,12.80
2017-08-03T20:36:23.290Z,11.80
2017-08-03T20:38:52.624Z,11.20
2017-08-03T20:41:21.508Z,11.20
2017-08-03T20:43:50.534Z,12.77
2017-08-03T20:46:19.090Z,16.47
2017-08-03T20:48:47.748Z,13.07
2017-08-03T20:51:15.641Z,11.37
2017-08-03T20:53:43.887Z,11.70
2017-08-03T20:56:11.781Z,13.50
2017-08-03T20:58:40.096Z,11.60
2017-08-03T21:01:08.099Z,11.43
2017-08-03T21:03:35.873Z,12.60
2017-08-03T21:06:05.180Z,10.90
2017-08-03T21:08:34.156Z,10.80
2017-08-03T21:11:03.309Z,12.33
2017-08-03T21:13:31.204Z,12.97
2017-08-03T21:15:59.374Z,11.87
2017-08-03T21:18:27.609Z,10.80
2017-08-03T21:20:56.164Z,10.67
2017-08-03T21:23:24.744Z,11.90
2017-08-03T21:25:53.546Z,14.87
2017-08-03T21:28:24.337Z,12.77
2017-08-03T21:30:52.293Z,11.93
2017-08-03T21:33:20.145Z,12.40
2017-08-03T21:35:48.287Z,12.37
2017-08-03T21:38:16.149Z,13.40
2017-08-03T21:40:45.125Z,13.17
2017-08-03T21:43:13.064Z,14.43
2017-08-03T21:45:42.248Z,11.97
2017-08-03T21:48:09.905Z,15.50
2017-08-03T21:50:39.097Z,13.23
2017-08-03T21:53:08.659Z,13.00
2017-08-03T21:55:40.521Z,11.40
2017-08-03T21:58:11.817Z,13.60
2017-08-03T22:00:52.044Z,13.47
2017-08-03T22:03:19.728Z,12.50
2017-08-03T22:05:47.988Z,13.40
2017-08-03T22:08:15.633Z,12.37
2017-08-03T22:10:44.214Z,9.47
2017-08-03T22:13:12.725Z,11.03
2017-08-03T22:15:42.111Z,10.60
2017-08-03T22:18:09.792Z,11.97
2017-08-03T22:20:37.521Z,11.50
2017-08-03T22:23:05.145Z,10.60
2017-08-03T22:25:33.242Z,11.53
2017-08-03T22:28:01.296Z,12.23
2017-08-03T22:30:29.152Z,10.80
2017-08-03T22:32:56.814Z,11.10
2017-08-03T22:35:25.218Z,10.27
2017-08-03T22:37:53.019Z,11.57
2017-08-03T22:40:20.704Z,10.30
2017-08-03T22:42:48.352Z,12.73
2017-08-03T22:45:16.002Z,10.90
2017-08-03T22:47:43.683Z,10.63
2017-08-03T22:50:11.300Z,11.57
2017-08-03T22:52:38.939Z,10.77
2017-08-03T22:55:07.929Z,11.47
2017-08-03T22:57:36.320Z,12.40
2017-08-03T23:00:04.012Z,12.70
2017-08-03T23:02:31.727Z,11.67
2017-08-03T23:04:59.400Z,12.90
2017-08-03T23:07:27.016Z,12.23
2017-08-03T23:09:54.697Z,11.00
2017-08-03T23:12:22.316Z,11.47
2017-08-03T23:14:49.941Z,12.93
2017-08-03T23:17:17.609Z,12.67
2017-08-03T23:19:45.244Z,13.83
2017-08-03T23:22:12.868Z,13.27
2017-08-03T23:24:41.150Z,12.60
2017-08-03T23:27:08.930Z,12.37
2017-08-03T23:29:36.662Z,11.40
2017-08-03T23:32:05.282Z,14.73
2017-08-03T23:34:32.900Z,11.57
2017-08-03T23:37:01.405Z,10.30
2017-08-03T23:39:29.097Z,11.60
2017-08-03T23:41:57.417Z,10.83
2017-08-03T23:44:25.360Z,10.90
2017-08-03T23:46:53.132Z,10.87
2017-08-03T23:49:20.761Z,12.10
2017-08-03T23:51:48.384Z,11.50
2017-08-03T23:54:16.808Z,11.10
2017-08-03T23:56:44.424Z,10.97
2017-08-03T23:59:12.044Z,12.33
